Time;durP1;ratioP1;P1;durP2;ratioP2;P2;SDS_P1;SDS_P2;PMS_P1;PMS_P2;Temp;Humidity;BMP_temperature;BMP_pressure;BME280_temperature;BME280_humidity;BME280_pressure;Samples;Min_cycle;Max_cycle;Signal;HPM_P1;HPM_P2
2021/05/24 00:00:25;;;;;;;7.22;1.00;;;;;;;15.39;49.85;100447.19;4954411;29;20070;-68
2021/05/24 00:02:54;;;;;;;6.35;1.23;;;;;;;15.40;49.87;100451.59;4937537;29;20051;-68
2021/05/24 00:05:29;;;;;;;5.38;1.05;;;;;;;15.52;49.59;100445.16;4922571;29;20047;-68
2021/05/24 00:07:57;;;;;;;4.82;1.30;;;;;;;15.28;50.07;100448.00;4954372;29;20055;-67
2021/05/24 00:10:27;;;;;;;5.95;1.20;;;;;;;15.34;49.96;100435.50;4937678;29;20059;-68
2021/05/24 00:13:00;;;;;;;7.07;1.63;;;;;;;15.28;50.08;100448.81;4922592;29;20055;-67
2021/05/24 00:15:32;;;;;;;5.05;0.90;;;;;;;15.14;50.63;100439.25;4954849;29;20066;-66
2021/05/24 00:18:00;;;;;;;4.55;1.10;;;;;;;15.34;50.53;100433.50;4954116;29;20066;-66
2021/05/24 00:20:30;;;;;;;6.93;2.03;;;;;;;15.24;50.54;100422.91;4954387;29;20518;-66
2021/05/24 00:22:58;;;;;;;5.43;1.30;;;;;;;14.98;51.45;100428.06;4953680;29;20047;-66
2021/05/24 00:25:27;;;;;;;10.02;1.17;;;;;;;14.98;51.42;100408.66;4921710;29;20051;-67
2021/05/24 00:27:56;;;;;;;7.03;0.90;;;;;;;15.00;51.81;100413.84;4954631;29;20051;-65
2021/05/24 00:30:26;;;;;;;2.72;0.90;;;;;;;15.03;51.86;100413.94;4936770;29;20051;-66
2021/05/24 00:32:54;;;;;;;5.07;1.33;;;;;;;15.05;51.75;100402.50;4936656;29;20047;-68
2021/05/24 00:35:22;;;;;;;5.13;1.10;;;;;;;14.72;52.47;100404.66;4954312;29;20047;-66
2021/05/24 00:37:50;;;;;;;7.38;1.30;;;;;;;14.86;52.72;100405.91;4936680;29;20054;-67
2021/05/24 00:40:17;;;;;;;6.55;1.25;;;;;;;14.97;52.32;100386.81;4954271;28;20059;-67
2021/05/24 00:42:45;;;;;;;4.95;0.85;;;;;;;15.11;52.04;100388.06;4936870;29;20073;-67
2021/05/24 00:45:13;;;;;;;6.70;1.10;;;;;;;15.05;52.06;100383.91;4921664;29;20048;-67
2021/05/24 00:47:41;;;;;;;3.95;0.93;;;;;;;14.93;52.31;100378.38;4954029;29;20058;-68
2021/05/24 00:50:09;;;;;;;6.18;1.00;;;;;;;15.00;52.34;100377.78;4953281;29;20066;-67
2021/05/24 00:52:37;;;;;;;3.80;0.93;;;;;;;15.11;52.08;100378.94;4953210;29;20502;-67
2021/05/24 00:55:06;;;;;;;6.88;1.40;;;;;;;15.22;51.50;100380.84;4953922;29;20059;-66
2021/05/24 00:57:34;;;;;;;6.85;1.17;;;;;;;15.29;51.51;100369.94;4936918;29;20043;-66
2021/05/24 01:00:08;;;;;;;3.10;0.80;;;;;;;15.29;51.37;100369.94;4920582;29;20062;-67
2021/05/24 01:02:36;;;;;;;7.25;1.20;;;;;;;15.11;51.76;100354.78;4937082;29;20039;-67
2021/05/24 01:05:04;;;;;;;5.70;0.90;;;;;;;14.94;51.78;100357.81;4936243;29;20411;-66
2021/05/24 01:07:31;;;;;;;7.07;0.98;;;;;;;14.82;52.13;100354.28;4953680;29;20051;-68
2021/05/24 01:10:00;;;;;;;9.18;1.00;;;;;;;15.07;52.38;100345.53;4953292;29;20140;-67
2021/05/24 01:12:27;;;;;;;2.45;1.17;;;;;;;15.15;51.84;100341.78;4953780;29;20043;-66
2021/05/24 01:14:54;;;;;;;4.80;1.20;;;;;;;14.89;53.00;100333.09;4953844;29;20055;-68
2021/05/24 01:17:22;;;;;;;4.88;0.77;;;;;;;14.92;52.91;100335.19;4936338;29;20051;-68
2021/05/24 01:19:49;;;;;;;7.68;1.10;;;;;;;15.15;52.67;100338.22;4936862;29;20059;-68
2021/05/24 01:22:20;;;;;;;8.82;1.20;;;;;;;14.97;52.53;100332.16;4936198;29;20051;-66
2021/05/24 01:24:48;;;;;;;4.95;1.00;;;;;;;14.87;53.52;100326.31;4954090;29;20055;-68
2021/05/24 01:27:16;;;;;;;4.82;1.45;;;;;;;14.77;53.97;100324.81;4952736;29;20487;-67
2021/05/24 01:29:44;;;;;;;5.28;1.10;;;;;;;14.82;53.68;100326.56;4953941;29;20051;-65
2021/05/24 01:32:11;;;;;;;2.88;0.70;;;;;;;14.70;53.73;100321.81;4953745;29;20491;-67
2021/05/24 01:34:42;;;;;;;6.82;1.02;;;;;;;14.66;54.30;100324.50;4936660;29;20058;-69
2021/05/24 01:37:10;;;;;;;7.03;1.10;;;;;;;14.66;54.21;100318.16;4952835;29;20051;-67
2021/05/24 01:39:37;;;;;;;3.13;0.60;;;;;;;14.64;54.02;100317.72;4935942;29;20055;-67
2021/05/24 01:42:04;;;;;;;7.88;0.82;;;;;;;14.64;53.97;100315.72;4936282;29;20059;-67
2021/05/24 01:44:35;;;;;;;3.38;0.77;;;;;;;14.63;54.05;100316.06;4936173;29;20047;-66
2021/05/24 01:47:03;;;;;;;5.25;1.40;;;;;;;14.64;54.31;100307.41;4936427;29;20555;-67
2021/05/24 01:49:32;;;;;;;3.90;0.77;;;;;;;14.49;55.35;100312.88;4952673;29;20507;-68
2021/05/24 01:52:01;;;;;;;3.97;0.95;;;;;;;14.43;55.87;100311.50;4936570;29;20062;-68
2021/05/24 01:54:28;;;;;;;5.68;0.90;;;;;;;14.44;55.59;100315.88;4953677;29;20043;-68
2021/05/24 01:56:55;;;;;;;4.80;0.68;;;;;;;14.37;56.17;100299.03;4952834;29;20055;-66
2021/05/24 01:59:23;;;;;;;3.50;0.60;;;;;;;14.40;56.21;100304.69;4935441;29;20055;-67
2021/05/24 02:01:50;;;;;;;4.88;1.00;;;;;;;14.41;56.60;100308.28;4920621;29;20395;-67
2021/05/24 02:04:17;;;;;;;3.97;0.80;;;;;;;13.91;57.97;100302.28;4953022;29;20067;-66
2021/05/24 02:06:45;;;;;;;8.77;1.38;;;;;;;13.89;58.28;100288.78;4953295;29;20047;-67
2021/05/24 02:09:12;;;;;;;4.10;0.90;;;;;;;13.84;59.06;100296.50;4936330;29;20051;-68
2021/05/24 02:11:40;;;;;;;4.97;1.08;;;;;;;13.91;59.49;100289.25;4953062;29;20138;-68
2021/05/24 02:14:09;;;;;;;3.60;0.93;;;;;;;14.00;59.94;100298.22;4936230;29;20112;-67
2021/05/24 02:21:08;;;;;;;6.38;1.10;;;;;;;13.88;61.58;100284.38;4956044;29;20051;-68
2021/05/24 02:23:35;;;;;;;3.08;0.85;;;;;;;13.74;61.56;100280.34;4938660;29;20051;-66
2021/05/24 02:26:03;;;;;;;5.53;1.30;;;;;;;13.68;62.70;100285.31;4955999;29;20047;-67
2021/05/24 02:28:30;;;;;;;4.57;1.00;;;;;;;13.66;62.53;100292.31;4956942;29;20056;-67
2021/05/24 02:30:58;;;;;;;3.33;0.80;;;;;;;13.53;63.31;100278.47;4956039;29;20055;-67
2021/05/24 02:38:03;;;;;;;4.85;0.80;;;;;;;13.37;64.38;100265.66;4956579;29;20047;-66
2021/05/24 02:40:31;;;;;;;6.32;1.50;;;;;;;13.38;64.12;100270.03;4956391;29;20096;-66
2021/05/24 02:42:59;;;;;;;3.17;0.88;;;;;;;13.33;64.51;100268.31;4955409;29;20063;-67
2021/05/24 02:45:27;;;;;;;3.63;1.00;;;;;;;13.35;64.46;100262.41;4939390;29;20055;-66
2021/05/24 02:47:54;;;;;;;6.55;1.00;;;;;;;13.35;64.17;100262.41;4938394;29;20047;-67
2021/05/24 02:50:23;;;;;;;7.18;0.98;;;;;;;13.29;64.70;100258.25;4956321;29;20051;-67
2021/05/24 02:52:52;;;;;;;5.97;1.20;;;;;;;13.10;65.79;100258.78;4945728;28;20059;-67
2021/05/24 02:55:22;;;;;;;3.50;0.98;;;;;;;13.53;64.55;100241.69;4955989;29;20058;-68
2021/05/24 02:57:51;;;;;;;9.50;1.23;;;;;;;13.40;64.81;100251.13;4955444;29;20062;-67
2021/05/24 03:00:19;;;;;;;3.13;0.90;;;;;;;13.04;65.62;100243.53;4956179;29;20047;-66
2021/05/24 03:02:48;;;;;;;3.92;1.13;;;;;;;13.19;65.65;100250.38;4938238;29;20051;-68
2021/05/24 03:05:19;;;;;;;5.72;1.00;;;;;;;13.15;65.83;100255.78;4937905;29;20487;-67
2021/05/24 03:07:48;;;;;;;5.57;1.00;;;;;;;13.20;66.32;100247.28;4955744;29;20427;-67
2021/05/24 03:10:18;;;;;;;3.00;1.05;;;;;;;13.03;66.68;100246.66;4938606;29;20066;-67
2021/05/24 03:12:45;;;;;;;5.13;1.10;;;;;;;12.96;67.39;100244.41;4939038;29;20051;-67
2021/05/24 03:15:14;;;;;;;3.20;0.95;;;;;;;13.12;67.19;100247.38;4939075;29;20063;-68
2021/05/24 03:17:42;;;;;;;5.40;1.10;;;;;;;13.02;67.89;100245.84;4955055;29;20051;-67
2021/05/24 03:20:11;;;;;;;3.17;0.73;;;;;;;12.99;68.40;100248.47;4937958;29;20047;-67
2021/05/24 03:22:38;;;;;;;6.95;1.10;;;;;;;12.94;68.72;100243.94;4938243;29;20499;-67
2021/05/24 03:25:08;;;;;;;6.38;1.27;;;;;;;13.00;68.57;100244.53;4938375;29;20058;-67
2021/05/24 03:27:38;;;;;;;4.45;1.13;;;;;;;13.00;69.15;100233.50;4939042;29;20459;-67
2021/05/24 03:30:08;;;;;;;8.15;1.45;;;;;;;12.91;69.53;100246.59;4954957;28;20051;-68
2021/05/24 03:32:35;;;;;;;6.87;1.33;;;;;;;12.88;69.83;100239.78;4938398;29;20067;-67
2021/05/24 03:35:03;;;;;;;3.13;0.88;;;;;;;12.87;69.96;100249.22;4955532;28;20055;-68
2021/05/24 03:37:31;;;;;;;4.45;0.88;;;;;;;12.65;70.71;100252.34;4955358;29;20051;-67
2021/05/24 03:40:00;;;;;;;4.68;1.17;;;;;;;12.71;71.12;100252.97;4954811;29;20154;-68
2021/05/24 03:42:28;;;;;;;8.60;1.25;;;;;;;12.73;71.01;100251.47;4938511;29;20055;-66
2021/05/24 03:44:55;;;;;;;4.20;1.38;;;;;;;12.74;71.48;100264.16;4937558;29;20058;-66
2021/05/24 03:47:23;;;;;;;5.38;1.40;;;;;;;12.72;71.30;100258.16;4954515;29;20051;-67
2021/05/24 03:49:51;;;;;;;5.15;1.02;;;;;;;12.66;71.95;100258.69;4954568;29;20047;-68
2021/05/24 03:52:19;;;;;;;5.03;1.42;;;;;;;12.72;72.13;100260.09;4937845;29;20059;-68
2021/05/24 03:54:46;;;;;;;4.28;1.38;;;;;;;12.61;72.35;100256.94;4954214;29;20066;-68
2021/05/24 03:57:13;;;;;;;3.95;1.10;;;;;;;12.69;72.73;100269.06;4955259;29;20055;-67
2021/05/24 03:59:41;;;;;;;7.45;1.70;;;;;;;12.58;73.25;100265.09;4955012;29;20058;-66
2021/05/24 04:02:08;;;;;;;6.10;1.27;;;;;;;12.72;72.48;100262.84;4954998;29;20058;-67
2021/05/24 04:09:04;;;;;;;6.45;1.50;;;;;;;12.70;73.37;100267.91;4954087;29;20047;-67
2021/05/24 04:11:32;;;;;;;6.60;1.17;;;;;;;12.42;73.92;100273.19;4954754;29;20058;-65
2021/05/24 04:13:59;;;;;;;5.88;1.55;;;;;;;12.44;74.07;100263.41;4937679;29;20039;-68
2021/05/24 04:16:27;;;;;;;4.22;1.23;;;;;;;12.55;73.71;100268.53;4954618;29;20491;-68
2021/05/24 04:23:23;;;;;;;5.38;1.30;;;;;;;12.48;74.43;100276.56;4954531;29;20047;-66
2021/05/24 04:25:50;;;;;;;7.80;1.75;;;;;;;12.68;73.59;100270.19;4936947;29;20479;-67
2021/05/24 04:28:17;;;;;;;6.65;2.10;;;;;;;12.66;73.39;100273.31;4954855;29;20054;-67
2021/05/24 04:30:46;;;;;;;6.85;1.25;;;;;;;12.59;74.04;100278.56;4954501;29;20403;-68
2021/05/24 04:37:40;;;;;;;4.43;1.25;;;;;;;12.62;74.23;100280.66;4954291;29;20039;-65
2021/05/24 04:40:08;;;;;;;6.72;1.70;;;;;;;12.51;74.70;100281.41;4953246;28;20062;-65
2021/05/24 04:42:35;;;;;;;5.28;1.30;;;;;;;12.66;74.51;100289.88;4954234;29;20410;-68
2021/05/24 04:45:04;;;;;;;5.28;1.55;;;;;;;12.78;74.13;100289.16;4937256;29;20062;-66
2021/05/24 04:47:33;;;;;;;4.80;1.40;;;;;;;12.67;74.27;100294.28;4936879;29;20051;-67
2021/05/24 04:54:29;;;;;;;4.25;1.20;;;;;;;12.63;74.64;100307.16;4936975;29;20051;-67
2021/05/24 04:56:56;;;;;;;3.47;0.90;;;;;;;12.69;74.58;100303.03;4936156;29;20051;-68
2021/05/24 04:59:24;;;;;;;3.75;1.15;;;;;;;12.79;74.64;100305.41;4954187;29;20395;-68
2021/05/24 05:01:51;;;;;;;8.00;1.77;;;;;;;12.75;74.86;100300.88;4953944;29;20039;-66
2021/05/24 05:08:48;;;;;;;8.05;1.50;;;;;;;12.65;75.35;100296.56;4953937;29;20043;-66
2021/05/24 05:11:15;;;;;;;3.95;1.30;;;;;;;12.74;75.05;100289.03;4936647;29;20051;-66
2021/05/24 05:13:43;;;;;;;6.50;1.52;;;;;;;12.74;75.09;100293.72;4953884;29;20062;-68
2021/05/24 05:16:11;;;;;;;3.95;1.17;;;;;;;12.73;75.54;100281.84;4920522;29;20367;-69
2021/05/24 05:23:05;;;;;;;6.82;1.40;;;;;;;12.58;75.99;100273.38;4952869;29;20499;-66
2021/05/24 05:25:32;;;;;;;7.32;1.50;;;;;;;12.65;75.51;100266.19;4936450;29;20055;-66
2021/05/24 05:28:00;;;;;;;3.55;1.20;;;;;;;12.71;75.66;100281.38;4952962;29;20051;-67
2021/05/24 05:30:27;;;;;;;5.95;1.17;;;;;;;12.89;74.86;100282.84;4953070;29;20047;-66
2021/05/24 05:32:55;;;;;;;6.28;1.30;;;;;;;13.01;74.11;100276.56;4953793;29;20054;-66
2021/05/24 05:39:59;;;;;;;5.20;1.52;;;;;;;12.69;75.44;100292.00;4952880;29;20047;-66
2021/05/24 05:42:27;;;;;;;7.55;1.20;;;;;;;12.72;75.55;100288.53;4953348;28;20063;-67
2021/05/24 05:44:54;;;;;;;3.25;0.90;;;;;;;12.95;74.13;100292.56;4953184;29;20043;-67
2021/05/24 05:47:23;;;;;;;5.53;1.20;;;;;;;12.80;74.57;100295.94;4935804;29;20051;-68
2021/05/24 05:49:51;;;;;;;3.33;1.00;;;;;;;12.83;74.90;100292.50;4953691;29;20054;-66
2021/05/24 05:52:19;;;;;;;2.63;0.98;;;;;;;12.79;74.70;100291.56;4937613;29;20503;-66
2021/05/24 05:54:46;;;;;;;4.22;1.10;;;;;;;12.77;75.31;100295.81;4956236;29;20052;-67
2021/05/24 05:57:14;;;;;;;4.45;1.15;;;;;;;12.83;74.48;100289.72;4939426;29;20518;-66
2021/05/24 05:59:42;;;;;;;2.53;1.20;;;;;;;12.98;74.47;100291.88;4939857;29;20055;-67
2021/05/24 06:02:09;;;;;;;4.30;1.20;;;;;;;13.05;74.17;100283.06;4956243;29;20062;-67
2021/05/24 06:04:37;;;;;;;5.03;1.45;;;;;;;13.12;73.81;100289.66;4957244;29;20047;-68
2021/05/24 06:07:04;;;;;;;5.55;1.50;;;;;;;12.96;73.84;100290.59;4957201;29;20047;-66
2021/05/24 06:09:31;;;;;;;4.22;1.23;;;;;;;12.94;74.36;100304.75;4957570;28;20051;-65
2021/05/24 06:11:59;;;;;;;4.75;1.58;;;;;;;12.89;74.28;100293.91;4957258;29;20058;-68
2021/05/24 06:14:28;;;;;;;3.85;1.30;;;;;;;12.75;74.97;100303.63;4957520;29;20051;-68
2021/05/24 06:16:56;;;;;;;4.63;1.65;;;;;;;12.91;74.90;100307.41;4956409;29;20066;-66
2021/05/24 06:19:25;;;;;;;5.70;3.03;;;;;;;12.89;74.79;100301.41;4940274;29;20058;-68
2021/05/24 06:21:52;;;;;;;11.52;4.95;;;;;;;13.21;73.62;100295.94;4940148;29;20051;-69
2021/05/24 06:24:22;;;;;;;16.92;9.10;;;;;;;13.02;74.03;100292.06;4925131;29;20062;-67
2021/05/24 06:26:49;;;;;;;8.40;3.80;;;;;;;12.94;73.89;100295.66;4924516;29;20043;-67
2021/05/24 06:29:22;;;;;;;5.72;2.45;;;;;;;12.91;74.09;100299.09;4939910;29;20427;-66
2021/05/24 06:31:53;;;;;;;11.30;6.80;;;;;;;12.70;74.57;100303.84;4956515;29;20055;-68
2021/05/24 06:34:21;;;;;;;3.78;1.58;;;;;;;12.77;74.68;100302.16;4956570;29;20051;-67
2021/05/24 06:36:48;;;;;;;2.25;1.23;;;;;;;12.88;74.05;100308.09;4956794;29;20486;-66
2021/05/24 06:39:17;;;;;;;5.35;1.50;;;;;;;12.87;73.46;100311.97;4939560;29;20047;-67
2021/05/24 06:41:45;;;;;;;12.63;5.13;;;;;;;13.06;72.53;100312.31;4939826;29;20054;-65
2021/05/24 06:44:12;;;;;;;5.45;1.58;;;;;;;12.98;72.76;100311.25;4939746;29;20483;-65
2021/05/24 06:46:40;;;;;;;5.25;1.33;;;;;;;13.01;72.41;100316.09;4923922;29;20074;-68
2021/05/24 06:49:08;;;;;;;4.18;1.30;;;;;;;13.03;71.90;100315.78;4956491;29;20047;-67
2021/05/24 06:51:35;;;;;;;4.13;1.27;;;;;;;12.93;72.27;100321.69;4938875;29;20112;-66
2021/05/24 06:54:03;;;;;;;14.18;6.10;;;;;;;12.90;72.17;100323.16;4939501;29;20051;-66
2021/05/24 06:56:36;;;;;;;17.83;6.07;;;;;;;12.90;71.44;100319.63;4955766;29;20051;-67
2021/05/24 06:59:03;;;;;;;11.20;1.73;;;;;;;13.05;71.20;100321.78;4938790;29;20058;-66
2021/05/24 07:01:31;;;;;;;5.05;1.33;;;;;;;13.10;71.43;100321.56;4939086;29;20054;-69
2021/05/24 07:03:59;;;;;;;6.55;1.95;;;;;;;13.10;71.34;100324.31;4956078;28;20066;-68
2021/05/24 07:06:26;;;;;;;6.85;2.58;;;;;;;12.88;71.72;100335.72;4938564;29;20064;-68
2021/05/24 07:08:53;;;;;;;9.18;4.45;;;;;;;12.96;71.86;100338.41;4938753;29;20055;-68
2021/05/24 07:11:21;;;;;;;9.38;4.85;;;;;;;13.02;71.99;100331.53;4939501;29;20051;-69
2021/05/24 07:13:49;;;;;;;7.95;3.63;;;;;;;13.15;71.43;100327.69;4938845;29;20047;-67
2021/05/24 07:16:16;;;;;;;9.70;3.88;;;;;;;13.28;70.92;100318.31;4955973;29;20047;-68
2021/05/24 07:18:44;;;;;;;4.53;2.03;;;;;;;13.12;70.82;100328.38;4938723;29;20050;-64
2021/05/24 07:25:49;;;;;;;7.00;2.08;;;;;;;13.26;70.29;100337.19;4955024;29;20055;-66
2021/05/24 07:28:16;;;;;;;6.07;1.92;;;;;;;13.24;70.21;100344.19;4938373;29;20058;-67
2021/05/24 07:30:44;;;;;;;4.65;2.05;;;;;;;13.30;69.83;100338.13;4938258;29;20055;-66
2021/05/24 07:33:11;;;;;;;7.53;3.28;;;;;;;13.08;70.28;100349.56;4937890;29;20058;-64
2021/05/24 07:35:39;;;;;;;9.65;2.00;;;;;;;13.17;70.01;100353.06;4955313;29;20047;-66
2021/05/24 07:38:08;;;;;;;8.43;3.60;;;;;;;13.29;69.37;100352.28;4954637;29;20055;-67
2021/05/24 07:40:36;;;;;;;7.68;2.55;;;;;;;13.25;69.58;100354.13;4955510;28;20055;-65
2021/05/24 07:43:04;;;;;;;5.03;1.90;;;;;;;13.43;69.59;100344.50;4954824;29;20047;-66
2021/05/24 07:45:31;;;;;;;6.97;2.45;;;;;;;13.61;68.61;100359.78;4938763;29;20054;-69
2021/05/24 07:47:59;;;;;;;8.13;2.85;;;;;;;13.77;67.83;100354.41;4938647;29;20055;-69
2021/05/24 07:50:26;;;;;;;6.25;2.20;;;;;;;13.70;67.40;100351.38;4955070;29;20071;-68
2021/05/24 07:52:54;;;;;;;5.78;1.70;;;;;;;14.01;67.15;100351.66;4955652;29;20062;-70
2021/05/24 07:55:21;;;;;;;4.47;1.40;;;;;;;13.89;67.43;100348.88;4955001;29;20062;-67
2021/05/24 07:57:49;;;;;;;5.78;1.48;;;;;;;14.09;66.84;100351.53;4937322;29;20062;-67
2021/05/24 08:00:17;;;;;;;3.95;1.70;;;;;;;14.25;65.76;100357.19;4955029;29;20058;-68
2021/05/24 08:02:44;;;;;;;5.65;1.75;;;;;;;14.41;64.82;100358.97;4954151;29;20055;-67
2021/05/24 08:05:13;;;;;;;8.07;2.58;;;;;;;14.75;64.54;100354.06;4953698;29;20055;-67
2021/05/24 08:07:41;;;;;;;6.75;2.58;;;;;;;14.55;63.95;100364.97;4937432;29;20472;-69
2021/05/24 08:10:10;;;;;;;7.55;2.92;;;;;;;14.65;64.56;100361.69;4936864;29;20058;-69
2021/05/24 08:12:39;;;;;;;5.72;1.52;;;;;;;14.79;64.21;100357.72;4954280;29;20458;-66
2021/05/24 08:15:16;;;;;;;4.88;1.50;;;;;;;14.53;64.41;100363.69;4953398;28;20502;-65
2021/05/24 08:17:45;;;;;;;7.07;1.95;;;;;;;14.61;64.39;100354.41;4937242;29;20054;-67
2021/05/24 08:20:14;;;;;;;6.55;2.80;;;;;;;14.86;63.96;100352.41;4954645;29;20062;-65
2021/05/24 08:22:42;;;;;;;11.18;4.45;;;;;;;14.93;62.80;100345.13;4937381;29;20051;-63
2021/05/24 08:25:10;;;;;;;5.13;2.17;;;;;;;14.90;63.34;100345.81;4954677;29;20487;-64
2021/05/24 08:27:39;;;;;;;6.65;1.83;;;;;;;14.95;63.94;100351.13;4953779;29;20058;-65
2021/05/24 08:30:27;;;;;;;4.93;1.80;;;;;;;15.12;64.97;100350.00;4953573;29;20055;-64
2021/05/24 08:32:55;;;;;;;8.52;1.85;;;;;;;15.35;63.70;100349.13;4937383;29;20055;-63
2021/05/24 08:35:22;;;;;;;5.70;1.90;;;;;;;15.55;62.17;100350.88;4954321;29;20491;-65
2021/05/24 08:37:50;;;;;;;4.47;1.83;;;;;;;15.52;63.29;100348.81;4954218;29;20345;-64
2021/05/24 08:40:20;;;;;;;3.13;1.50;;;;;;;15.63;62.39;100340.78;4936974;29;20483;-63
2021/05/24 08:42:48;;;;;;;6.07;1.88;;;;;;;15.61;61.79;100346.69;4936719;29;20051;-68
2021/05/24 08:45:17;;;;;;;4.60;1.67;;;;;;;15.63;61.51;100347.16;4953440;29;20483;-68
2021/05/24 08:47:45;;;;;;;6.18;1.58;;;;;;;15.52;60.92;100357.16;4954103;29;20395;-65
2021/05/24 08:50:14;;;;;;;5.72;1.90;;;;;;;15.96;61.86;100338.47;4937194;29;20054;-64
2021/05/24 08:52:42;;;;;;;7.32;2.03;;;;;;;16.42;59.54;100348.75;4936961;29;20070;-68
2021/05/24 08:55:11;;;;;;;5.43;1.92;;;;;;;16.52;57.81;100339.09;4953191;29;20395;-71
2021/05/24 08:57:40;;;;;;;8.18;1.80;;;;;;;16.43;59.35;100339.25;4920569;29;20059;-70
2021/05/24 09:00:13;;;;;;;12.77;7.95;;;;;;;16.31;59.69;100339.34;4935971;29;20063;-70
2021/05/24 09:02:45;;;;;;;6.68;2.00;;;;;;;16.46;57.64;100340.47;4935144;29;20062;-67
2021/05/24 09:05:12;;;;;;;5.57;1.90;;;;;;;16.96;57.77;100323.78;4904447;29;20047;-70
2021/05/24 09:07:52;;;;;;;5.32;1.75;;;;;;;17.02;55.24;100329.84;4935344;29;20207;-71
2021/05/24 09:10:24;;;;;;;5.60;1.88;;;;;;;17.24;55.58;100329.13;4936648;29;20050;-70
2021/05/24 09:12:52;;;;;;;6.05;1.50;;;;;;;17.15;54.79;100325.75;4953083;29;20062;-68
2021/05/24 09:15:22;;;;;;;4.47;1.55;;;;;;;16.82;54.78;100326.25;4953097;29;20069;-69
2021/05/24 09:17:59;;;;;;;10.57;5.68;;;;;;;16.88;55.16;100320.03;4953779;29;20052;-68
2021/05/24 09:20:28;;;;;;;7.38;1.60;;;;;;;17.04;54.59;100317.19;4937132;29;20055;-69
2021/05/24 09:23:25;;;;;;;10.93;2.22;;;;;;;16.99;54.61;100316.66;4953124;29;20057;-70
2021/05/24 09:26:01;;;;;;;5.97;1.70;;;;;;;16.99;53.70;100317.47;4878813;29;20060;-67
2021/05/24 09:28:49;;;;;;;10.45;2.10;;;;;;;16.83;54.34;100314.75;4894282;29;20089;-69
2021/05/24 09:31:23;;;;;;;7.20;2.25;;;;;;;16.80;54.70;100323.03;4894009;29;20618;-66
2021/05/24 09:34:01;;;;;;;7.22;1.92;;;;;;;16.71;54.84;100314.09;4893974;29;20056;-66
2021/05/24 09:36:29;;;;;;;5.93;1.70;;;;;;;16.88;54.16;100302.53;4894592;29;20068;-67
2021/05/24 09:39:04;;;;;;;12.30;1.87;;;;;;;16.81;53.75;100302.38;4878611;29;20111;-66
2021/05/24 09:41:42;;;;;;;6.40;1.58;;;;;;;17.00;53.72;100299.59;4893980;29;20064;-70
2021/05/24 09:44:20;;;;;;;5.15;1.63;;;;;;;17.25;53.54;100298.13;4893410;29;20052;-66
2021/05/24 09:46:51;;;;;;;4.53;1.35;;;;;;;16.72;53.18;100287.88;4894416;29;20060;-71
2021/05/24 09:49:24;;;;;;;10.40;1.70;;;;;;;17.19;52.22;100291.25;4878570;29;20076;-69
2021/05/24 09:51:52;;;;;;;8.48;1.58;;;;;;;17.48;52.07;100299.00;4893831;29;20048;-67
2021/05/24 09:54:22;;;;;;;5.03;1.75;;;;;;;17.38;52.02;100296.00;4879329;29;20055;-67
2021/05/24 09:56:51;;;;;;;8.60;2.05;;;;;;;17.55;51.96;100293.56;4894963;29;20064;-72
2021/05/24 09:59:23;;;;;;;9.07;1.83;;;;;;;17.31;51.76;100290.28;4894616;29;20440;-66
2021/05/24 10:01:58;;;;;;;5.97;1.60;;;;;;;17.37;51.82;100286.84;4908496;29;20065;-68
2021/05/24 10:04:29;;;;;;;5.47;1.85;;;;;;;17.55;52.33;100282.44;4938094;29;20055;-66
2021/05/24 10:07:00;;;;;;;6.47;1.45;;;;;;;17.59;51.90;100279.72;4935744;29;20047;-66
2021/05/24 10:09:33;;;;;;;7.63;2.22;;;;;;;17.65;51.45;100283.78;4936485;29;20055;-66
2021/05/24 10:12:03;;;;;;;5.95;1.45;;;;;;;17.69;51.02;100277.13;4952781;29;20562;-71
2021/05/24 10:14:31;;;;;;;7.20;1.73;;;;;;;17.68;50.76;100278.28;4935677;29;20074;-66
2021/05/24 10:17:02;;;;;;;7.85;2.15;;;;;;;17.65;50.72;100281.00;4935623;29;20518;-66
2021/05/24 10:19:31;;;;;;;6.60;1.70;;;;;;;17.75;50.90;100270.03;4936025;29;20054;-68
2021/05/24 10:21:59;;;;;;;5.95;1.90;;;;;;;17.58;51.51;100280.88;4953290;29;20058;-65
2021/05/24 10:24:26;;;;;;;5.95;1.65;;;;;;;17.61;51.82;100285.69;4953285;29;20051;-65
2021/05/24 10:27:00;;;;;;;6.82;1.75;;;;;;;17.45;52.10;100277.41;4952557;29;20052;-66
2021/05/24 10:29:29;;;;;;;6.30;1.90;;;;;;;17.47;52.68;100277.91;4935809;29;20055;-65
2021/05/24 10:31:58;;;;;;;8.93;1.92;;;;;;;17.11;54.23;100285.91;4935668;29;20047;-65
2021/05/24 10:34:25;;;;;;;7.45;1.98;;;;;;;17.18;54.90;100278.50;4936523;29;20055;-64
2021/05/24 10:37:18;;;;;;;6.35;2.10;;;;;;;17.35;54.21;100266.09;4935142;29;20117;-66
2021/05/24 10:39:49;;;;;;;7.28;1.77;;;;;;;17.47;53.92;100263.19;4956102;29;20066;-66
2021/05/24 10:42:17;;;;;;;14.60;2.17;;;;;;;17.54;53.07;100263.31;4956482;28;20070;-67
2021/05/24 10:44:46;;;;;;;14.30;5.35;;;;;;;17.46;52.70;100262.38;4955588;29;20059;-72
2021/05/24 10:47:16;;;;;;;8.50;2.80;;;;;;;16.88;54.36;100272.75;4955916;29;20051;-70
2021/05/24 10:50:02;;;;;;;5.45;1.77;;;;;;;16.89;55.14;100279.13;4956246;29;20055;-70
2021/05/24 10:52:33;;;;;;;6.25;2.30;;;;;;;16.53;57.19;100277.53;4955692;29;20051;-72
2021/05/24 10:55:27;;;;;;;10.95;2.53;;;;;;;16.14;60.55;100298.06;4939430;29;20067;-70
2021/05/24 10:58:05;;;;;;;13.45;3.30;;;;;;;15.69;63.26;100295.72;4938268;29;20066;-68
2021/05/24 11:00:56;;;;;;;10.23;2.95;;;;;;;15.30;66.37;100266.13;4923117;29;20058;-70
2021/05/24 11:03:23;;;;;;;9.30;2.53;;;;;;;15.57;66.51;100258.91;4938243;29;20055;-71
2021/05/24 11:06:08;;;;;;;9.15;2.65;;;;;;;16.02;65.29;100250.13;4955462;29;20407;-68
2021/05/24 11:08:38;;;;;;;6.95;2.15;;;;;;;16.40;64.17;100250.22;4938431;29;20136;-70
2021/05/24 11:11:26;;;;;;;7.88;1.60;;;;;;;16.43;62.05;100261.41;4956041;29;20054;-70
2021/05/24 11:13:57;;;;;;;8.25;1.63;;;;;;;16.46;60.09;100249.59;4938908;29;20435;-70
2021/05/24 11:16:25;;;;;;;4.97;1.60;;;;;;;16.62;57.28;100241.19;4939286;29;20047;-68
2021/05/24 11:19:26;;;;;;;7.72;1.70;;;;;;;16.49;57.02;100231.38;4955212;29;20403;-70
2021/05/24 11:25:54;;;;;;;7.00;2.33;;;;;;;16.19;57.31;100230.28;4896337;29;20048;-70
2021/05/24 11:28:36;;;;;;;11.15;2.85;;;;;;;16.33;57.72;100230.59;4895943;29;20063;-71
2021/05/24 11:31:19;;;;;;;6.28;2.20;;;;;;;16.23;56.25;100220.84;4896671;29;20075;-70
2021/05/24 11:33:50;;;;;;;7.55;2.38;;;;;;;16.29;56.65;100224.13;4896828;29;20055;-71
2021/05/24 11:36:42;;;;;;;6.68;2.00;;;;;;;16.65;55.36;100232.09;4896943;29;20049;-69
2021/05/24 11:39:30;;;;;;;8.57;2.42;;;;;;;17.02;53.58;100246.34;4880437;29;20063;-69
2021/05/24 11:41:57;;;;;;;6.82;2.17;;;;;;;17.11;52.00;100238.59;4896402;29;20057;-70
2021/05/24 11:44:33;;;;;;;7.43;2.20;;;;;;;17.15;51.35;100229.16;4896189;29;20165;-70
2021/05/24 11:47:03;;;;;;;5.95;1.75;;;;;;;17.28;50.73;100215.84;4866031;29;20052;-70
2021/05/24 11:50:06;;;;;;;6.63;1.63;;;;;;;17.51;49.35;100222.25;4882901;29;20056;-69
2021/05/24 11:56:59;;;;;;;7.45;1.65;;;;;;;18.05;48.75;100211.59;4895848;29;20044;-70
2021/05/24 11:59:28;;;;;;;11.70;2.70;;;;;;;17.99;47.84;100210.34;4950522;29;20407;-69
2021/05/24 12:01:59;;;;;;;10.13;3.78;;;;;;;18.23;46.44;100186.78;4954217;29;20051;-67
2021/05/24 12:04:37;;;;;;;10.57;2.55;;;;;;;18.11;45.10;100189.78;4954897;29;20043;-69
2021/05/24 12:07:11;;;;;;;11.27;2.58;;;;;;;18.03;45.74;100188.09;4954669;29;20047;-67
2021/05/24 12:11:34;;;;;;;9.98;2.95;;;;;;;17.88;46.37;100190.66;4924069;29;20111;-68
2021/05/24 12:14:08;;;;;;;10.45;2.72;;;;;;;18.26;46.47;100191.59;4932768;29;20079;-69
2021/05/24 12:16:42;;;;;;;9.32;2.50;;;;;;;18.24;45.61;100196.72;4917320;29;20067;-70
2021/05/24 12:19:10;;;;;;;7.82;2.10;;;;;;;18.13;44.69;100181.88;4917392;29;20047;-68
2021/05/24 12:21:41;;;;;;;8.27;2.35;;;;;;;18.23;44.79;100187.59;4933408;29;20059;-69
2021/05/24 12:28:32;;;;;;;8.00;1.85;;;;;;;18.51;44.40;100189.97;4945955;29;20043;-69
2021/05/24 12:31:00;;;;;;;11.75;2.90;;;;;;;18.42;43.55;100184.69;4936055;29;20066;-67
2021/05/24 12:33:28;;;;;;;8.82;2.15;;;;;;;18.33;44.41;100186.09;4936302;29;20078;-68
2021/05/24 12:36:02;;;;;;;12.27;3.08;;;;;;;18.42;44.33;100189.44;4937141;29;20411;-69